Terminal Aerodrome Forecast
Issued by NWS

Home | Current Version | Previous Version | Text Only | Print | Product List | Glossary On
Versions: 1 2 3 4 5 6 7 8 9 10 11 12 13 14
000
FTUS46 KEKA 231736
TAFUKI
TAF
KUKI 231736Z 2318/2418 00000KT P6SM -RA FEW040 BKN045 OVC060
     FM232000 13004KT 5SM -RA BR OVC020
     FM240200 00000KT P6SM VCSH SCT020 BKN035 OVC100
     FM240600 00000KT 5SM BR VCFG SCT002
     FM241700 15007KT P6SM SCT200=

USA.gov is the U.S. government's official web portal to all federal, state and local government web resources and services.